sensor_id;sensor_type;location;lat;lon;timestamp;pressure;altitude;pressure_sealevel;temperature;humidity
54172;BME280;40076;52.354;4.970;2023-11-21T00:06:58;101106.94;;;9.64;100.00
54172;BME280;40076;52.354;4.970;2023-11-21T00:09:45;101113.16;;;9.64;100.00
54172;BME280;40076;52.354;4.970;2023-11-21T00:12:52;101111.25;;;9.65;100.00
54172;BME280;40076;52.354;4.970;2023-11-21T00:15:29;101118.25;;;9.66;100.00
54172;BME280;40076;52.354;4.970;2023-11-21T00:18:07;101120.13;;;9.65;100.00
54172;BME280;40076;52.354;4.970;2023-11-21T00:23:59;101130.81;;;9.71;100.00
54172;BME280;40076;52.354;4.970;2023-11-21T00:26:59;101127.31;;;9.70;100.00
54172;BME280;40076;52.354;4.970;2023-11-21T00:29:48;101130.50;;;9.72;100.00
54172;BME280;40076;52.354;4.970;2023-11-21T00:32:35;101131.31;;;9.73;100.00
54172;BME280;40076;52.354;4.970;2023-11-21T00:35:31;101125.63;;;9.74;100.00
54172;BME280;40076;52.354;4.970;2023-11-21T00:38:16;101124.19;;;9.77;100.00
54172;BME280;40076;52.354;4.970;2023-11-21T00:40:58;101123.88;;;9.78;100.00
54172;BME280;40076;52.354;4.970;2023-11-21T00:43:51;101131.69;;;9.80;100.00
54172;BME280;40076;52.354;4.970;2023-11-21T00:47:00;101129.78;;;9.80;100.00
54172;BME280;40076;52.354;4.970;2023-11-21T00:50:14;101132.19;;;9.82;100.00
54172;BME280;40076;52.354;4.970;2023-11-21T01:13:03;101152.97;;;9.81;100.00
54172;BME280;40076;52.354;4.970;2023-11-21T01:16:18;101148.88;;;9.84;100.00
54172;BME280;40076;52.354;4.970;2023-11-21T01:22:14;101166.63;;;9.85;100.00
54172;BME280;40076;52.354;4.970;2023-11-21T01:28:31;101170.94;;;9.86;100.00
54172;BME280;40076;52.354;4.970;2023-11-21T01:31:22;101180.34;;;9.88;100.00
54172;BME280;40076;52.354;4.970;2023-11-21T01:34:21;101180.34;;;9.88;100.00
54172;BME280;40076;52.354;4.970;2023-11-21T01:37:18;101193.81;;;9.88;100.00
54172;BME280;40076;52.354;4.970;2023-11-21T01:40:07;101200.81;;;9.89;100.00
54172;BME280;40076;52.354;4.970;2023-11-21T01:46:04;101198.94;;;9.90;100.00
54172;BME280;40076;52.354;4.970;2023-11-21T01:49:21;101195.13;;;9.91;100.00
54172;BME280;40076;52.354;4.970;2023-11-21T01:52:13;101201.63;;;9.90;100.00
54172;BME280;40076;52.354;4.970;2023-11-21T02:05:16;101214.03;;;9.91;100.00
54172;BME280;40076;52.354;4.970;2023-11-21T02:11:00;101207.50;;;9.92;100.00
54172;BME280;40076;52.354;4.970;2023-11-21T02:16:50;101212.00;;;9.96;100.00
54172;BME280;40076;52.354;4.970;2023-11-21T02:22:57;101219.09;;;9.92;100.00
54172;BME280;40076;52.354;4.970;2023-11-21T02:29:00;101225.28;;;9.93;100.00
54172;BME280;40076;52.354;4.970;2023-11-21T02:34:50;101234.19;;;9.93;100.00
54172;BME280;40076;52.354;4.970;2023-11-21T02:37:33;101226.09;;;9.93;100.00
54172;BME280;40076;52.354;4.970;2023-11-21T02:40:34;101232.28;;;9.94;100.00
54172;BME280;40076;52.354;4.970;2023-11-21T02:43:22;101232.00;;;9.95;100.00
54172;BME280;40076;52.354;4.970;2023-11-21T02:46:11;101228.19;;;9.96;100.00
54172;BME280;40076;52.354;4.970;2023-11-21T02:51:36;101232.50;;;9.97;100.00
54172;BME280;40076;52.354;4.970;2023-11-21T02:54:12;101230.59;;;9.98;100.00
54172;BME280;40076;52.354;4.970;2023-11-21T02:57:14;101231.41;;;9.98;100.00
54172;BME280;40076;52.354;4.970;2023-11-21T02:59:42;101229.78;;;9.97;100.00
54172;BME280;40076;52.354;4.970;2023-11-21T03:02:28;101227.56;;;9.99;100.00
54172;BME280;40076;52.354;4.970;2023-11-21T03:08:11;101228.38;;;10.00;100.00
54172;BME280;40076;52.354;4.970;2023-11-21T03:10:57;101238.88;;;10.01;100.00
54172;BME280;40076;52.354;4.970;2023-11-21T03:16:32;101253.16;;;10.02;100.00
54172;BME280;40076;52.354;4.970;2023-11-21T03:19:02;101249.38;;;10.03;100.00
54172;BME280;40076;52.354;4.970;2023-11-21T03:21:51;101255.56;;;10.03;100.00
54172;BME280;40076;52.354;4.970;2023-11-21T03:24:19;101252.56;;;10.05;100.00
54172;BME280;40076;52.354;4.970;2023-11-21T03:27:00;101254.47;;;10.04;100.00
54172;BME280;40076;52.354;4.970;2023-11-21T03:29:34;101253.38;;;10.05;100.00
54172;BME280;40076;52.354;4.970;2023-11-21T03:32:02;101260.38;;;10.06;100.00
54172;BME280;40076;52.354;4.970;2023-11-21T03:34:52;101268.47;;;10.06;100.00
54172;BME280;40076;52.354;4.970;2023-11-21T03:37:33;101260.38;;;10.06;100.00
54172;BME280;40076;52.354;4.970;2023-11-21T03:40:13;101264.66;;;10.07;100.00
54172;BME280;40076;52.354;4.970;2023-11-21T03:42:45;101264.34;;;10.09;100.00
54172;BME280;40076;52.354;4.970;2023-11-21T03:45:19;101268.94;;;10.08;100.00
54172;BME280;40076;52.354;4.970;2023-11-21T03:48:08;101272.44;;;10.09;100.00
54172;BME280;40076;52.354;4.970;2023-11-21T03:50:39;101282.16;;;10.10;100.00
54172;BME280;40076;52.354;4.970;2023-11-21T03:53:12;101276.75;;;10.10;100.00
54172;BME280;40076;52.354;4.970;2023-11-21T03:55:40;101286.44;;;10.11;100.00
54172;BME280;40076;52.354;4.970;2023-11-21T03:58:18;101288.84;;;10.13;100.00
54172;BME280;40076;52.354;4.970;2023-11-21T04:01:04;101289.31;;;10.15;100.00
54172;BME280;40076;52.354;4.970;2023-11-21T04:03:39;101289.31;;;10.15;100.00
54172;BME280;40076;52.354;4.970;2023-11-21T04:06:21;101289.03;;;10.16;100.00
54172;BME280;40076;52.354;4.970;2023-11-21T04:08:46;101302.25;;;10.18;100.00
54172;BME280;40076;52.354;4.970;2023-11-21T04:11:28;101308.47;;;10.18;100.00
54172;BME280;40076;52.354;4.970;2023-11-21T04:14:04;101308.16;;;10.20;100.00
54172;BME280;40076;52.354;4.970;2023-11-21T04:16:32;101308.97;;;10.20;100.00
54172;BME280;40076;52.354;4.970;2023-11-21T04:19:01;101309.75;;;10.21;100.00
54172;BME280;40076;52.354;4.970;2023-11-21T04:21:29;101319.47;;;10.22;100.00
54172;BME280;40076;52.354;4.970;2023-11-21T04:24:18;101321.03;;;10.23;100.00
54172;BME280;40076;52.354;4.970;2023-11-21T04:26:47;101326.16;;;10.24;100.00
54172;BME280;40076;52.354;4.970;2023-11-21T04:29:17;101329.66;;;10.25;100.00
54172;BME280;40076;52.354;4.970;2023-11-21T04:31:43;101332.84;;;10.27;100.00
54172;BME280;40076;52.354;4.970;2023-11-21T04:34:17;101330.94;;;10.27;100.00
54172;BME280;40076;52.354;4.970;2023-11-21T04:36:49;101330.66;;;10.29;100.00
54172;BME280;40076;52.354;4.970;2023-11-21T04:39:30;101331.44;;;10.29;100.00
54172;BME280;40076;52.354;4.970;2023-11-21T04:42:01;101341.94;;;10.31;100.00
54172;BME280;40076;52.354;4.970;2023-11-21T04:44:37;101342.72;;;10.31;100.00
54172;BME280;40076;52.354;4.970;2023-11-21T04:47:21;101353.22;;;10.33;100.00
54172;BME280;40076;52.354;4.970;2023-11-21T04:49:49;101347.84;;;10.33;100.00
54172;BME280;40076;52.354;4.970;2023-11-21T04:52:24;101347.53;;;10.34;100.00
54172;BME280;40076;52.354;4.970;2023-11-21T04:54:52;101350.75;;;10.36;100.00
54172;BME280;40076;52.354;4.970;2023-11-21T04:57:26;101361.53;;;10.36;100.00
54172;BME280;40076;52.354;4.970;2023-11-21T04:59:55;101360.13;;;10.39;100.00
54172;BME280;40076;52.354;4.970;2023-11-21T05:02:24;101369.53;;;10.41;100.00
54172;BME280;40076;52.354;4.970;2023-11-21T05:04:50;101362.22;;;10.42;100.00
54172;BME280;40076;52.354;4.970;2023-11-21T05:07:18;101367.31;;;10.43;100.00
54172;BME280;40076;52.354;4.970;2023-11-21T05:09:44;101378.31;;;10.47;100.00
54172;BME280;40076;52.354;4.970;2023-11-21T05:12:13;101368.31;;;10.48;100.00
54172;BME280;40076;52.354;4.970;2023-11-21T05:14:39;101381.50;;;10.49;100.00
54172;BME280;40076;52.354;4.970;2023-11-21T05:17:08;101377.09;;;10.53;100.00
54172;BME280;40076;52.354;4.970;2023-11-21T05:19:36;101381.09;;;10.56;100.00
54172;BME280;40076;52.354;4.970;2023-11-21T05:22:03;101378.88;;;10.58;100.00
54172;BME280;40076;52.354;4.970;2023-11-21T05:24:31;101383.50;;;10.57;100.00
54172;BME280;40076;52.354;4.970;2023-11-21T05:26:56;101391.78;;;10.61;100.00
54172;BME280;40076;52.354;4.970;2023-11-21T05:29:23;101394.97;;;10.63;100.00
54172;BME280;40076;52.354;4.970;2023-11-21T05:31:51;101400.69;;;10.61;100.00
54172;BME280;40076;52.354;4.970;2023-11-21T05:34:16;101403.59;;;10.65;100.00
54172;BME280;40076;52.354;4.970;2023-11-21T05:36:51;101405.19;;;10.66;100.00
54172;BME280;40076;52.354;4.970;2023-11-21T05:39:17;101413.31;;;10.66;100.00
54172;BME280;40076;52.354;4.970;2023-11-21T05:41:47;101410.28;;;10.67;100.00
54172;BME280;40076;52.354;4.970;2023-11-21T05:44:15;101419.22;;;10.68;100.00
54172;BME280;40076;52.354;4.970;2023-11-21T05:46:41;101415.06;;;10.70;100.00
54172;BME280;40076;52.354;4.970;2023-11-21T05:49:15;101420.47;;;10.70;100.00
54172;BME280;40076;52.354;4.970;2023-11-21T05:51:41;101426.91;;;10.74;100.00
54172;BME280;40076;52.354;4.970;2023-11-21T05:54:07;101429.38;;;10.71;100.00
54172;BME280;40076;52.354;4.970;2023-11-21T05:56:40;101440.19;;;10.71;100.00
54172;BME280;40076;52.354;4.970;2023-11-21T05:59:08;101438.13;;;10.68;100.00
54172;BME280;40076;52.354;4.970;2023-11-21T06:01:34;101442.09;;;10.70;100.00
54172;BME280;40076;52.354;4.970;2023-11-21T06:04:29;101452.63;;;10.72;100.00
54172;BME280;40076;52.354;4.970;2023-11-21T06:06:57;101447.50;;;10.70;100.00
54172;BME280;40076;52.354;4.970;2023-11-21T06:09:34;101455.91;;;10.69;100.00
54172;BME280;40076;52.354;4.970;2023-11-21T06:12:02;101462.63;;;10.71;100.00
54172;BME280;40076;52.354;4.970;2023-11-21T06:14:31;101463.22;;;10.68;100.00
54172;BME280;40076;52.354;4.970;2023-11-21T06:17:18;101465.34;;;10.71;100.00
54172;BME280;40076;52.354;4.970;2023-11-21T06:19:44;101466.44;;;10.70;100.00
54172;BME280;40076;52.354;4.970;2023-11-21T06:22:24;101475.63;;;10.69;100.00
54172;BME280;40076;52.354;4.970;2023-11-21T06:24:54;101471.84;;;10.70;100.00
54172;BME280;40076;52.354;4.970;2023-11-21T06:27:19;101471.84;;;10.70;100.00
54172;BME280;40076;52.354;4.970;2023-11-21T06:30:01;101481.56;;;10.71;100.00
54172;BME280;40076;52.354;4.970;2023-11-21T06:32:42;101485.34;;;10.70;100.00
54172;BME280;40076;52.354;4.970;2023-11-21T06:35:11;101488.06;;;10.70;100.00
54172;BME280;40076;52.354;4.970;2023-11-21T06:37:50;101486.16;;;10.71;100.00
54172;BME280;40076;52.354;4.970;2023-11-21T06:40:24;101494.25;;;10.71;100.00
54172;BME280;40076;52.354;4.970;2023-11-21T06:43:23;101501.56;;;10.70;100.00
54172;BME280;40076;52.354;4.970;2023-11-21T06:45:54;101495.06;;;10.71;100.00
54172;BME280;40076;52.354;4.970;2023-11-21T06:48:30;101502.66;;;10.69;100.00
54172;BME280;40076;52.354;4.970;2023-11-21T06:50:59;101500.75;;;10.70;100.00
54172;BME280;40076;52.354;4.970;2023-11-21T06:56:38;101516.38;;;10.73;100.00
54172;BME280;40076;52.354;4.970;2023-11-21T06:59:04;101519.09;;;10.73;100.00
54172;BME280;40076;52.354;4.970;2023-11-21T07:01:31;101525.59;;;10.72;100.00
54172;BME280;40076;52.354;4.970;2023-11-21T07:04:07;101535.00;;;10.74;100.00
54172;BME280;40076;52.354;4.970;2023-11-21T07:06:32;101533.91;;;10.75;100.00
54172;BME280;40076;52.354;4.970;2023-11-21T07:08:58;101535.50;;;10.76;100.00
54172;BME280;40076;52.354;4.970;2023-11-21T07:11:23;101535.81;;;10.75;100.00
54172;BME280;40076;52.354;4.970;2023-11-21T07:13:51;101545.50;;;10.76;100.00
54172;BME280;40076;52.354;4.970;2023-11-21T07:16:17;101556.03;;;10.77;100.00
54172;BME280;40076;52.354;4.970;2023-11-21T07:18:43;101547.91;;;10.77;100.00
54172;BME280;40076;52.354;4.970;2023-11-21T07:21:09;101555.72;;;10.79;100.00
54172;BME280;40076;52.354;4.970;2023-11-21T07:23:37;101556.53;;;10.79;100.00
54172;BME280;40076;52.354;4.970;2023-11-21T07:26:03;101561.94;;;10.79;100.00
54172;BME280;40076;52.354;4.970;2023-11-21T07:28:31;101570.03;;;10.79;100.00
54172;BME280;40076;52.354;4.970;2023-11-21T07:30:56;101575.44;;;10.79;100.00
54172;BME280;40076;52.354;4.970;2023-11-21T07:33:22;101581.44;;;10.76;100.00
54172;BME280;40076;52.354;4.970;2023-11-21T07:35:47;101589.25;;;10.78;100.00
54172;BME280;40076;52.354;4.970;2023-11-21T07:38:13;101589.25;;;10.78;100.00
54172;BME280;40076;52.354;4.970;2023-11-21T07:40:38;101589.25;;;10.78;100.00
54172;BME280;40076;52.354;4.970;2023-11-21T07:43:04;101602.78;;;10.78;100.00
54172;BME280;40076;52.354;4.970;2023-11-21T07:45:30;101606.56;;;10.77;100.00
54172;BME280;40076;52.354;4.970;2023-11-21T07:47:56;101598.47;;;10.77;100.00
54172;BME280;40076;52.354;4.970;2023-11-21T07:50:22;101604.97;;;10.76;100.00
54172;BME280;40076;52.354;4.970;2023-11-21T07:52:48;101619.91;;;10.73;100.00
54172;BME280;40076;52.354;4.970;2023-11-21T07:55:15;101618.81;;;10.74;100.00
54172;BME280;40076;52.354;4.970;2023-11-21T07:57:40;101623.91;;;10.76;100.00
54172;BME280;40076;52.354;4.970;2023-11-21T08:00:08;101630.09;;;10.76;100.00
54172;BME280;40076;52.354;4.970;2023-11-21T08:02:36;101633.31;;;10.78;100.00
54172;BME280;40076;52.354;4.970;2023-11-21T08:05:01;101636.81;;;10.79;100.00
54172;BME280;40076;52.354;4.970;2023-11-21T08:07:27;101642.53;;;10.77;100.00
54172;BME280;40076;52.354;4.970;2023-11-21T08:09:52;101646.31;;;10.76;100.00
54172;BME280;40076;52.354;4.970;2023-11-21T08:12:18;101656.84;;;10.78;100.00
54172;BME280;40076;52.354;4.970;2023-11-21T08:14:48;101658.75;;;10.77;100.00
54172;BME280;40076;52.354;4.970;2023-11-21T08:17:13;101663.06;;;10.78;100.00
54172;BME280;40076;52.354;4.970;2023-11-21T08:19:39;101672.78;;;10.79;100.00
54172;BME280;40076;52.354;4.970;2023-11-21T08:22:04;101682.50;;;10.80;100.00
54172;BME280;40076;52.354;4.970;2023-11-21T08:24:32;101678.69;;;10.81;100.00
54172;BME280;40076;52.354;4.970;2023-11-21T08:27:00;101682.28;;;10.77;100.00
54172;BME280;40076;52.354;4.970;2023-11-21T08:29:26;101684.09;;;10.81;100.00
54172;BME280;40076;52.354;4.970;2023-11-21T08:32:09;101686.78;;;10.81;100.00
54172;BME280;40076;52.354;4.970;2023-11-21T08:34:34;101695.38;;;10.83;100.00
54172;BME280;40076;52.354;4.970;2023-11-21T08:37:02;101700.78;;;10.83;100.00
54172;BME280;40076;52.354;4.970;2023-11-21T08:39:28;101711.31;;;10.85;100.00
54172;BME280;40076;52.354;4.970;2023-11-21T08:41:55;101697.00;;;10.84;100.00
54172;BME280;40076;52.354;4.970;2023-11-21T08:44:21;101706.19;;;10.83;100.00
54172;BME280;40076;52.354;4.970;2023-11-21T08:46:51;101715.91;;;10.84;100.00
54172;BME280;40076;52.354;4.970;2023-11-21T08:49:19;101716.25;;;10.83;100.00
54172;BME280;40076;52.354;4.970;2023-11-21T08:51:44;101720.53;;;10.84;100.00
54172;BME280;40076;52.354;4.970;2023-11-21T08:54:10;101724.34;;;10.83;100.00
54172;BME280;40076;52.354;4.970;2023-11-21T08:56:37;101717.03;;;10.83;100.00
54172;BME280;40076;52.354;4.970;2023-11-21T08:59:08;101734.84;;;10.84;100.00
54172;BME280;40076;52.354;4.970;2023-11-21T09:01:35;101730.34;;;10.80;100.00
54172;BME280;40076;52.354;4.970;2023-11-21T09:04:01;101738.47;;;10.80;100.00
54172;BME280;40076;52.354;4.970;2023-11-21T09:06:29;101738.22;;;10.76;100.00
54172;BME280;40076;52.354;4.970;2023-11-21T09:08:54;101747.66;;;10.79;100.00
54172;BME280;40076;52.354;4.970;2023-11-21T09:11:22;101750.19;;;10.75;100.00
54172;BME280;40076;52.354;4.970;2023-11-21T09:13:48;101750.66;;;10.77;100.00
54172;BME280;40076;52.354;4.970;2023-11-21T09:16:14;101761.75;;;10.76;100.00
54172;BME280;40076;52.354;4.970;2023-11-21T09:18:42;101762.09;;;10.74;100.00
54172;BME280;40076;52.354;4.970;2023-11-21T09:21:16;101770.78;;;10.71;100.00
54172;BME280;40076;52.354;4.970;2023-11-21T09:23:49;101771.06;;;10.70;100.00
54172;BME280;40076;52.354;4.970;2023-11-21T09:26:14;101777.78;;;10.72;100.00
54172;BME280;40076;52.354;4.970;2023-11-21T09:28:41;101787.81;;;10.72;100.00
54172;BME280;40076;52.354;4.970;2023-11-21T09:31:14;101782.69;;;10.70;100.00
54172;BME280;40076;52.354;4.970;2023-11-21T09:33:47;101792.09;;;10.73;100.00
54172;BME280;40076;52.354;4.970;2023-11-21T09:36:15;101798.91;;;10.70;100.00
54172;BME280;40076;52.354;4.970;2023-11-21T09:38:41;101807.00;;;10.70;100.00
54172;BME280;40076;52.354;4.970;2023-11-21T09:51:07;101827.91;;;10.65;100.00
54172;BME280;40076;52.354;4.970;2023-11-21T09:56:59;101833.09;;;10.61;100.00
54172;BME280;40076;52.354;4.970;2023-11-21T10:02:57;101857.94;;;10.63;100.00
54172;BME280;40076;52.354;4.970;2023-11-21T10:17:49;101883.78;;;10.69;100.00
54172;BME280;40076;52.354;4.970;2023-11-21T10:20:21;101882.19;;;10.68;100.00
54172;BME280;40076;52.354;4.970;2023-11-21T10:22:51;101889.00;;;10.66;100.00
54172;BME280;40076;52.354;4.970;2023-11-21T10:25:22;101886.50;;;10.69;100.00
54172;BME280;40076;52.354;4.970;2023-11-21T10:28:12;101898.41;;;10.68;100.00
54172;BME280;40076;52.354;4.970;2023-11-21T10:30:41;101888.38;;;10.69;100.00
54172;BME280;40076;52.354;4.970;2023-11-21T10:33:41;101897.09;;;10.66;100.00
54172;BME280;40076;52.354;4.970;2023-11-21T10:36:30;101900.09;;;10.64;100.00
54172;BME280;40076;52.354;4.970;2023-11-21T10:39:06;101908.13;;;10.69;100.00
54172;BME280;40076;52.354;4.970;2023-11-21T10:44:38;101910.25;;;10.72;100.00
54172;BME280;40076;52.354;4.970;2023-11-21T10:47:11;101912.16;;;10.72;100.00
54172;BME280;40076;52.354;4.970;2023-11-21T10:49:40;101919.75;;;10.70;100.00
54172;BME280;40076;52.354;4.970;2023-11-21T10:52:10;101924.06;;;10.71;100.00
54172;BME280;40076;52.354;4.970;2023-11-21T10:54:48;101924.84;;;10.71;100.00
54172;BME280;40076;52.354;4.970;2023-11-21T10:57:25;101927.84;;;10.70;100.00
54172;BME280;40076;52.354;4.970;2023-11-21T10:59:54;101928.66;;;10.70;100.00
54172;BME280;40076;52.354;4.970;2023-11-21T11:02:28;101931.06;;;10.72;100.00
54172;BME280;40076;52.354;4.970;2023-11-21T11:04:58;101932.16;;;10.71;100.00
54172;BME280;40076;52.354;4.970;2023-11-21T11:07:39;101934.34;;;10.69;100.00
54172;BME280;40076;52.354;4.970;2023-11-21T11:13:48;101947.66;;;10.65;100.00
54172;BME280;40076;52.354;4.970;2023-11-21T11:16:18;101944.44;;;10.63;100.00
54172;BME280;40076;52.354;4.970;2023-11-21T11:18:51;101954.97;;;10.65;100.00
54172;BME280;40076;52.354;4.970;2023-11-21T11:44:01;101948.50;;;10.61;100.00
54172;BME280;40076;52.354;4.970;2023-11-21T11:46:44;101953.16;;;10.60;100.00
54172;BME280;40076;52.354;4.970;2023-11-21T11:49:42;101958.03;;;10.58;100.00
54172;BME280;40076;52.354;4.970;2023-11-21T11:52:48;101957.50;;;10.56;100.00
54172;BME280;40076;52.354;4.970;2023-11-21T12:06:14;101967.31;;;10.52;100.00
54172;BME280;40076;52.354;4.970;2023-11-21T12:09:29;101978.41;;;10.51;100.00
54172;BME280;40076;52.354;4.970;2023-11-21T12:12:11;101974.59;;;10.52;100.00
54172;BME280;40076;52.354;4.970;2023-11-21T12:14:40;101978.91;;;10.53;100.00
54172;BME280;40076;52.354;4.970;2023-11-21T12:17:10;101970.81;;;10.53;100.00
54172;BME280;40076;52.354;4.970;2023-11-21T12:19:49;101990.22;;;10.55;100.00
54172;BME280;40076;52.354;4.970;2023-11-21T12:22:38;101978.91;;;10.53;100.00
54172;BME280;40076;52.354;4.970;2023-11-21T12:25:06;101982.72;;;10.52;100.00
54172;BME280;40076;52.354;4.970;2023-11-21T12:27:47;101984.59;;;10.51;100.00
54172;BME280;40076;52.354;4.970;2023-11-21T12:30:14;101988.94;;;10.52;100.00
54172;BME280;40076;52.354;4.970;2023-11-21T12:32:44;102001.09;;;10.50;100.00
54172;BME280;40076;52.354;4.970;2023-11-21T12:35:26;102004.09;;;10.48;100.00
54172;BME280;40076;52.354;4.970;2023-11-21T12:37:53;102012.19;;;10.48;100.00
54172;BME280;40076;52.354;4.970;2023-11-21T12:40:22;102013.00;;;10.49;100.00
54172;BME280;40076;52.354;4.970;2023-11-21T12:43:01;102009.22;;;10.50;100.00
54172;BME280;40076;52.354;4.970;2023-11-21T12:45:34;102014.34;;;10.51;100.00
54172;BME280;40076;52.354;4.970;2023-11-21T12:48:04;102027.84;;;10.51;100.00
54172;BME280;40076;52.354;4.970;2023-11-21T12:50:37;102031.34;;;10.52;100.00
54172;BME280;40076;52.354;4.970;2023-11-21T12:53:07;102043.47;;;10.54;100.00
54172;BME280;40076;52.354;4.970;2023-11-21T12:55:44;102046.16;;;10.54;100.00
54172;BME280;40076;52.354;4.970;2023-11-21T12:58:32;102038.06;;;10.54;100.00
54172;BME280;40076;52.354;4.970;2023-11-21T13:01:10;102045.09;;;10.55;100.00
54172;BME280;40076;52.354;4.970;2023-11-21T13:03:47;102044.28;;;10.55;100.00
54172;BME280;40076;52.354;4.970;2023-11-21T13:06:21;102046.25;;;10.49;100.00
54172;BME280;40076;52.354;4.970;2023-11-21T13:08:57;102056.03;;;10.45;100.00
54172;BME280;40076;52.354;4.970;2023-11-21T13:11:41;102066.84;;;10.45;100.00
54172;BME280;40076;52.354;4.970;2023-11-21T13:14:10;102067.94;;;10.44;100.00
54172;BME280;40076;52.354;4.970;2023-11-21T13:16:36;102049.28;;;10.42;100.00
54172;BME280;40076;52.354;4.970;2023-11-21T13:19:03;102067.41;;;10.42;100.00
54172;BME280;40076;52.354;4.970;2023-11-21T13:21:28;102063.38;;;10.39;100.00
54172;BME280;40076;52.354;4.970;2023-11-21T13:23:54;102064.69;;;10.42;100.00
54172;BME280;40076;52.354;4.970;2023-11-21T13:26:22;102070.38;;;10.40;100.00
54172;BME280;40076;52.354;4.970;2023-11-21T13:28:49;102078.78;;;10.39;100.00
54172;BME280;40076;52.354;4.970;2023-11-21T13:31:15;102069.56;;;10.40;100.00
54172;BME280;40076;52.354;4.970;2023-11-21T13:33:52;102071.47;;;10.39;100.00
54172;BME280;40076;52.354;4.970;2023-11-21T13:36:32;102069.38;;;10.36;100.00
54172;BME280;40076;52.354;4.970;2023-11-21T13:39:00;102085.78;;;10.40;100.00
54172;BME280;40076;52.354;4.970;2023-11-21T13:41:32;102085.25;;;10.38;100.00
54172;BME280;40076;52.354;4.970;2023-11-21T13:43:57;102085.03;;;10.34;100.00
54172;BME280;40076;52.354;4.970;2023-11-21T13:46:32;102088.84;;;10.33;100.00
54172;BME280;40076;52.354;4.970;2023-11-21T13:49:02;102085.59;;;10.31;100.00
54172;BME280;40076;52.354;4.970;2023-11-21T13:51:28;102092.91;;;10.31;100.00
54172;BME280;40076;52.354;4.970;2023-11-21T13:54:02;102094.53;;;10.32;100.00
54172;BME280;40076;52.354;4.970;2023-11-21T13:56:30;102099.91;;;10.32;100.00
54172;BME280;40076;52.354;4.970;2023-11-21T13:58:57;102101.31;;;10.29;100.00
54172;BME280;40076;52.354;4.970;2023-11-21T14:01:33;102111.59;;;10.27;100.00
54172;BME280;40076;52.354;4.970;2023-11-21T14:04:17;102113.78;;;10.25;100.00
54172;BME280;40076;52.354;4.970;2023-11-21T14:06:47;102127.00;;;10.27;100.00
54172;BME280;40076;52.354;4.970;2023-11-21T14:09:17;102130.50;;;10.27;100.00
54172;BME280;40076;52.354;4.970;2023-11-21T14:11:57;102132.47;;;10.22;100.00
54172;BME280;40076;52.354;4.970;2023-11-21T14:14:27;102125.94;;;10.23;100.00
54172;BME280;40076;52.354;4.970;2023-11-21T14:16:53;102130.25;;;10.24;100.00
54172;BME280;40076;52.354;4.970;2023-11-21T14:19:21;102134.56;;;10.25;100.00
54172;BME280;40076;52.354;4.970;2023-11-21T14:21:47;102138.38;;;10.24;100.00
54172;BME280;40076;52.354;4.970;2023-11-21T14:24:14;102133.50;;;10.26;100.00
54172;BME280;40076;52.354;4.970;2023-11-21T14:26:41;102145.38;;;10.25;100.00
54172;BME280;40076;52.354;4.970;2023-11-21T14:29:09;102149.50;;;10.17;100.00
54172;BME280;40076;52.354;4.970;2023-11-21T14:31:39;102146.81;;;10.17;100.00
54172;BME280;40076;52.354;4.970;2023-11-21T14:34:07;102153.53;;;10.15;100.00
54172;BME280;40076;52.354;4.970;2023-11-21T14:36:33;102148.94;;;10.15;100.00
54172;BME280;40076;52.354;4.970;2023-11-21T14:38:59;102164.88;;;10.17;100.00
54172;BME280;40076;52.354;4.970;2023-11-21T14:41:28;102157.34;;;10.14;100.00
54172;BME280;40076;52.354;4.970;2023-11-21T14:43:55;102175.94;;;10.15;100.00
54172;BME280;40076;52.354;4.970;2023-11-21T14:46:22;102171.34;;;10.16;100.00
54172;BME280;40076;52.354;4.970;2023-11-21T14:48:48;102181.34;;;10.15;100.00
54172;BME280;40076;52.354;4.970;2023-11-21T14:51:25;102176.53;;;10.12;100.00
54172;BME280;40076;52.354;4.970;2023-11-21T14:53:57;102186.53;;;10.12;100.00
54172;BME280;40076;52.354;4.970;2023-11-21T14:56:31;102201.66;;;10.13;100.00
54172;BME280;40076;52.354;4.970;2023-11-21T14:58:58;102200.84;;;10.12;100.00
54172;BME280;40076;52.354;4.970;2023-11-21T15:01:31;102207.06;;;10.07;100.00
54172;BME280;40076;52.354;4.970;2023-11-21T15:04:10;102208.69;;;10.08;100.00
54172;BME280;40076;52.354;4.970;2023-11-21T15:07:08;102207.38;;;10.06;100.00
54172;BME280;40076;52.354;4.970;2023-11-21T15:09:35;102224.41;;;10.01;100.00
54172;BME280;40076;52.354;4.970;2023-11-21T15:12:04;102221.47;;;9.98;100.00
54172;BME280;40076;52.354;4.970;2023-11-21T15:14:45;102215.81;;;9.94;100.00
54172;BME280;40076;52.354;4.970;2023-11-21T15:17:13;102234.44;;;9.96;100.00
54172;BME280;40076;52.354;4.970;2023-11-21T15:19:48;102242.53;;;9.96;100.00
54172;BME280;40076;52.354;4.970;2023-11-21T15:22:14;102244.72;;;9.94;100.00
54172;BME280;40076;52.354;4.970;2023-11-21T15:24:44;102241.72;;;9.95;100.00
54172;BME280;40076;52.354;4.970;2023-11-21T15:27:12;102250.91;;;9.94;100.00
54172;BME280;40076;52.354;4.970;2023-11-21T15:29:41;102255.78;;;9.92;100.00
54172;BME280;40076;52.354;4.970;2023-11-21T15:32:07;102266.06;;;9.90;100.00
54172;BME280;40076;52.354;4.970;2023-11-21T15:34:33;102270.66;;;9.90;100.00
54172;BME280;40076;52.354;4.970;2023-11-21T15:36:59;102277.16;;;9.89;100.00
54172;BME280;40076;52.354;4.970;2023-11-21T15:39:24;102279.03;;;9.88;100.00
54172;BME280;40076;52.354;4.970;2023-11-21T15:41:53;102284.44;;;9.88;100.00
54172;BME280;40076;52.354;4.970;2023-11-21T15:44:19;102293.09;;;9.85;100.00